<?xml version="1.0" encoding="UTF-8" standalone="no" ?>
<gpx xmlns="http://www.topografix.com/GPX/1/1" xmlns:xsi="http://www.w3.org/2001/XMLSchema-instance" xsi:schemaLocation="http://www.topografix.com/GPX/1/1 http://www.topografix.com/GPX/1/1/gpx.xsd" version="1.1" creator="VisuGPX - https://www.visugpx.com">
  <metadata>
    <name>luzech 6 descentes</name>
    <desc><![CDATA[parcours typé enduro avec de belles descentes]]></desc>
  </metadata>
  <trk>
    <name><![CDATA[2014-04-01-08-18-57]]></name>
    <trkseg>
      <trkpt lat="44.43881" lon="1.29207">
        <ele>148.359</ele>
        <time>2014-04-01T09:57:41Z</time>
      </trkpt>
      <trkpt lat="44.43885" lon="1.29201">
        <ele>146.989</ele>
        <time>2014-04-01T09:57:45Z</time>
      </trkpt>
      <trkpt lat="44.43887" lon="1.29197">
        <ele>146.158</ele>
        <time>2014-04-01T09:57:49Z</time>
      </trkpt>
      <trkpt lat="44.43886" lon="1.292">
        <ele>146.129</ele>
        <time>2014-04-01T09:57:52Z</time>
      </trkpt>
      <trkpt lat="44.43878" lon="1.29208">
        <ele>146.13</ele>
        <time>2014-04-01T09:57:57Z</time>
      </trkpt>
      <trkpt lat="44.43873" lon="1.29218">
        <ele>143.688</ele>
        <time>2014-04-01T09:58:03Z</time>
      </trkpt>
      <trkpt lat="44.43872" lon="1.29219">
        <ele>142.718</ele>
        <time>2014-04-01T09:58:05Z</time>
      </trkpt>
      <trkpt lat="44.43858" lon="1.29221">
        <ele>143.37</ele>
        <time>2014-04-01T09:58:11Z</time>
      </trkpt>
      <trkpt lat="44.43847" lon="1.2922">
        <ele>142.57</ele>
        <time>2014-04-01T09:58:15Z</time>
      </trkpt>
      <trkpt lat="44.43833" lon="1.29233">
        <ele>143.22</ele>
        <time>2014-04-01T09:58:20Z</time>
      </trkpt>
      <trkpt lat="44.43826" lon="1.2924">
        <ele>144.03</ele>
        <time>2014-04-01T09:58:24Z</time>
      </trkpt>
      <trkpt lat="44.43824" lon="1.2924">
        <ele>143.94</ele>
        <time>2014-04-01T09:58:25Z</time>
      </trkpt>
      <trkpt lat="44.43809" lon="1.29237">
        <ele>143.061</ele>
        <time>2014-04-01T09:58:31Z</time>
      </trkpt>
      <trkpt lat="44.438" lon="1.29234">
        <ele>144.201</ele>
        <time>2014-04-01T09:58:35Z</time>
      </trkpt>
      <trkpt lat="44.43789" lon="1.29227">
        <ele>145.55</ele>
        <time>2014-04-01T09:58:41Z</time>
      </trkpt>
      <trkpt lat="44.4377" lon="1.29217">
        <ele>144.48</ele>
        <time>2014-04-01T09:58:48Z</time>
      </trkpt>
      <trkpt lat="44.43756" lon="1.29211">
        <ele>144.529</ele>
        <time>2014-04-01T09:58:54Z</time>
      </trkpt>
      <trkpt lat="44.43735" lon="1.29205">
        <ele>145.77</ele>
        <time>2014-04-01T09:59:01Z</time>
      </trkpt>
      <trkpt lat="44.43715" lon="1.29203">
        <ele>145.529</ele>
        <time>2014-04-01T09:59:08Z</time>
      </trkpt>
      <trkpt lat="44.43701" lon="1.29202">
        <ele>144.969</ele>
        <time>2014-04-01T09:59:13Z</time>
      </trkpt>
      <trkpt lat="44.43686" lon="1.29205">
        <ele>145.859</ele>
        <time>2014-04-01T09:59:18Z</time>
      </trkpt>
      <trkpt lat="44.43677" lon="1.29209">
        <ele>146.65</ele>
        <time>2014-04-01T09:59:23Z</time>
      </trkpt>
      <trkpt lat="44.43669" lon="1.29212">
        <ele>149.579</ele>
        <time>2014-04-01T09:59:30Z</time>
      </trkpt>
      <trkpt lat="44.43667" lon="1.29214">
        <ele>149.519</ele>
        <time>2014-04-01T09:59:36Z</time>
      </trkpt>
      <trkpt lat="44.43667" lon="1.29213">
        <ele>149.308</ele>
        <time>2014-04-01T09:59:37Z</time>
      </trkpt>
      <trkpt lat="44.43669" lon="1.29213">
        <ele>148.508</ele>
        <time>2014-04-01T09:59:40Z</time>
      </trkpt>
      <trkpt lat="44.43667" lon="1.29222">
        <ele>148.282</ele>
        <time>2014-04-01T09:59:46Z</time>
      </trkpt>
    </trkseg>
  </trk>
</gpx>